createdAt,value
2019-03-12T00:00:33.870Z,1.70
2019-03-12T00:03:04.022Z,1.65
2019-03-12T00:05:34.446Z,1.87
2019-03-12T00:08:04.504Z,1.67
2019-03-12T00:10:34.683Z,1.60
2019-03-12T00:13:04.790Z,1.70
2019-03-12T00:15:34.965Z,1.70
2019-03-12T00:18:05.565Z,1.60
2019-03-12T00:20:35.616Z,1.50
2019-03-12T00:23:05.789Z,1.52
2019-03-12T00:25:35.810Z,1.50
2019-03-12T00:28:05.850Z,1.50
2019-03-12T00:30:36.028Z,1.47
2019-03-12T00:33:07.023Z,1.92
2019-03-12T00:35:37.515Z,1.60
2019-03-12T00:38:07.541Z,1.80
2019-03-12T00:40:37.598Z,1.70
2019-03-12T00:43:07.702Z,2.10
2019-03-12T00:45:37.851Z,1.60
2019-03-12T00:48:08.420Z,1.98
2019-03-12T00:50:38.870Z,1.70
2019-03-12T00:53:08.994Z,1.87
2019-03-12T00:55:39.522Z,1.77
2019-03-12T00:58:09.925Z,2.05
2019-03-12T01:00:39.996Z,1.57
2019-03-12T01:03:10.186Z,1.60
2019-03-12T01:05:40.938Z,1.70
2019-03-12T01:08:11.470Z,1.43
2019-03-12T01:10:41.504Z,1.72
2019-03-12T01:13:15.798Z,2.30
2019-03-12T01:15:45.826Z,2.00
2019-03-12T01:18:15.918Z,1.65
2019-03-12T01:20:46.404Z,1.80
2019-03-12T01:23:16.829Z,1.70
2019-03-12T01:25:46.951Z,1.72
2019-03-12T01:28:17.827Z,1.50
2019-03-12T01:30:47.952Z,1.60
2019-03-12T01:33:18.046Z,1.80
2019-03-12T01:35:48.191Z,2.00
2019-03-12T01:38:18.402Z,1.77
2019-03-12T01:40:48.524Z,1.85
2019-03-12T01:43:18.839Z,1.90
2019-03-12T01:45:49.471Z,2.37
2019-03-12T01:48:19.600Z,1.95
2019-03-12T01:50:49.723Z,2.05
2019-03-12T01:53:19.828Z,2.00
2019-03-12T01:55:49.977Z,2.12
2019-03-12T01:58:20.067Z,1.90
2019-03-12T02:00:50.238Z,1.92
2019-03-12T02:03:20.258Z,1.55
2019-03-12T02:05:50.732Z,1.82
2019-03-12T02:08:21.184Z,1.98
2019-03-12T02:10:51.243Z,1.67
2019-03-12T02:13:21.351Z,2.22
2019-03-12T02:15:51.726Z,2.12
2019-03-12T02:18:21.959Z,2.67
2019-03-12T02:20:51.982Z,1.90
2019-03-12T02:23:22.120Z,1.85
2019-03-12T02:25:52.175Z,2.05
2019-03-12T02:28:22.241Z,2.00
2019-03-12T02:30:52.287Z,2.00
2019-03-12T02:33:22.846Z,1.82
2019-03-12T02:35:53.330Z,1.65
2019-03-12T02:38:23.809Z,1.77
2019-03-12T02:40:54.017Z,2.17
2019-03-12T02:43:24.678Z,1.60
2019-03-12T02:45:54.810Z,1.90
2019-03-12T02:48:25.010Z,1.65
2019-03-12T02:50:55.724Z,1.82
2019-03-12T02:53:25.914Z,1.90
2019-03-12T02:55:55.975Z,2.20
2019-03-12T02:58:26.472Z,2.27
2019-03-12T03:00:56.937Z,2.10
2019-03-12T03:03:27.440Z,1.75
2019-03-12T03:06:07.400Z,2.22
2019-03-12T03:08:37.469Z,2.05
2019-03-12T03:11:07.669Z,1.90
2019-03-12T03:13:37.869Z,1.87
2019-03-12T03:16:08.293Z,2.12
2019-03-12T03:18:38.451Z,1.85
2019-03-12T03:21:08.914Z,1.82
2019-03-12T03:23:39.247Z,1.52
2019-03-12T03:26:09.410Z,2.02
2019-03-12T03:28:39.940Z,2.17
2019-03-12T03:31:10.178Z,1.90
2019-03-12T03:33:40.623Z,1.87
2019-03-12T03:36:10.715Z,2.15
2019-03-12T03:38:40.791Z,2.15
2019-03-12T03:41:10.952Z,2.17
2019-03-12T03:43:41.366Z,2.50
2019-03-12T03:46:12.493Z,1.77
2019-03-12T03:48:42.867Z,2.30
2019-03-12T03:51:13.325Z,2.40
2019-03-12T03:53:43.448Z,2.20
2019-03-12T03:56:13.594Z,2.33
2019-03-12T03:58:43.811Z,2.05
2019-03-12T04:01:14.270Z,2.22
2019-03-12T04:03:44.850Z,2.33
2019-03-12T04:06:15.327Z,2.25
2019-03-12T04:08:45.515Z,1.77
2019-03-12T04:11:16.154Z,2.12
2019-03-12T04:13:46.186Z,2.15
2019-03-12T04:16:16.551Z,2.00
2019-03-12T04:18:47.041Z,2.58
2019-03-12T04:21:17.581Z,2.60
2019-03-12T04:23:47.751Z,1.85
2019-03-12T04:26:17.851Z,2.20
2019-03-12T04:28:48.194Z,2.60
2019-03-12T04:31:18.461Z,2.17
2019-03-12T04:34:07.418Z,2.30
2019-03-12T04:36:37.822Z,2.47
2019-03-12T04:39:08.083Z,2.27
2019-03-12T04:41:39.858Z,2.20
2019-03-12T04:44:09.900Z,1.98
2019-03-12T04:46:40.262Z,2.45
2019-03-12T04:49:10.376Z,2.60
2019-03-12T04:51:40.555Z,2.35
2019-03-12T04:54:10.683Z,2.50
2019-03-12T04:56:40.700Z,2.80
2019-03-12T04:59:10.800Z,2.58
2019-03-12T05:01:40.936Z,2.40
2019-03-12T05:04:11.074Z,2.42
2019-03-12T05:06:41.156Z,2.35
2019-03-12T05:09:11.210Z,2.37
2019-03-12T05:11:41.223Z,2.35
2019-03-12T05:14:33.855Z,2.70
2019-03-12T05:17:11.671Z,2.40
2019-03-12T05:19:43.599Z,2.27
2019-03-12T05:22:14.063Z,1.87
2019-03-12T05:24:44.360Z,2.40
2019-03-12T05:27:14.468Z,2.42
2019-03-12T05:29:44.913Z,2.90
2019-03-12T05:32:15.039Z,2.83
2019-03-12T05:34:45.439Z,2.83
2019-03-12T05:37:15.609Z,2.30
2019-03-12T05:39:46.867Z,2.52
2019-03-12T05:42:17.108Z,2.50
2019-03-12T05:44:47.139Z,2.50
2019-03-12T05:47:17.980Z,2.77
2019-03-12T05:49:48.410Z,2.60
2019-03-12T05:52:20.146Z,2.60
2019-03-12T05:54:50.594Z,2.72
2019-03-12T05:57:20.703Z,2.40
2019-03-12T05:59:51.155Z,2.50
2019-03-12T06:02:21.608Z,2.45
2019-03-12T06:04:51.688Z,2.27
2019-03-12T06:07:21.762Z,2.65
2019-03-12T06:09:52.206Z,2.45
2019-03-12T06:12:22.352Z,2.42
2019-03-12T06:14:52.886Z,2.62
2019-03-12T06:17:23.040Z,3.00
2019-03-12T06:19:53.163Z,2.77
2019-03-12T06:22:23.408Z,3.33
2019-03-12T06:24:54.484Z,2.70
2019-03-12T06:27:25.007Z,3.17
2019-03-12T06:29:56.157Z,3.15
2019-03-12T06:32:33.494Z,2.60
2019-03-12T06:35:13.922Z,2.92
2019-03-12T06:38:01.573Z,2.50
2019-03-12T06:40:59.866Z,2.85
2019-03-12T06:43:40.596Z,2.70
2019-03-12T06:46:28.361Z,2.95
2019-03-12T06:49:18.642Z,2.80
2019-03-12T06:52:06.392Z,3.37
2019-03-12T06:54:54.259Z,2.77
2019-03-12T06:57:46.035Z,2.80
2019-03-12T07:00:47.209Z,3.98
2019-03-12T07:03:54.390Z,3.90
2019-03-12T07:06:43.459Z,4.58
2019-03-12T07:09:24.706Z,5.22
2019-03-12T07:12:17.319Z,4.58
2019-03-12T07:15:10.959Z,3.40
2019-03-12T07:17:52.547Z,3.52
2019-03-12T07:20:31.612Z,6.20
2019-03-12T07:23:17.551Z,3.55
2019-03-12T07:26:02.789Z,3.37
2019-03-12T07:28:54.188Z,3.15
2019-03-12T07:31:30.564Z,3.22
2019-03-12T07:34:36.651Z,2.60
2019-03-12T07:37:41.086Z,2.52
2019-03-12T07:40:29.029Z,2.80
2019-03-12T07:43:05.113Z,2.33
2019-03-12T07:45:44.521Z,2.70
2019-03-12T07:48:34.267Z,2.90
2019-03-12T07:51:38.510Z,3.08
2019-03-12T07:54:26.294Z,2.60
2019-03-12T07:57:24.711Z,2.95
2019-03-12T08:00:09.823Z,3.05
2019-03-12T08:02:52.168Z,2.77
2019-03-12T08:05:33.489Z,3.25
2019-03-12T08:08:22.748Z,2.95
2019-03-12T08:11:17.853Z,2.72
2019-03-12T08:13:55.699Z,2.40
2019-03-12T08:16:53.767Z,2.62
2019-03-12T08:19:46.541Z,2.87
2019-03-12T08:22:36.763Z,2.75
2019-03-12T08:25:19.752Z,2.45
2019-03-12T08:28:12.801Z,2.65
2019-03-12T08:31:16.722Z,2.33
2019-03-12T08:33:53.155Z,2.50
2019-03-12T08:36:40.566Z,2.50
2019-03-12T08:39:41.479Z,2.90
2019-03-12T08:42:33.699Z,2.60
2019-03-12T08:47:55.728Z,2.67
2019-03-12T08:50:53.880Z,2.70
2019-03-12T08:53:45.923Z,2.30
2019-03-12T08:59:34.582Z,2.95
2019-03-12T09:02:29.618Z,2.75
2019-03-12T09:05:22.701Z,2.45
2019-03-12T09:08:11.786Z,2.90
2019-03-12T09:10:58.259Z,2.50
2019-03-12T09:13:47.235Z,2.75
2019-03-12T09:16:36.284Z,2.40
2019-03-12T09:19:26.781Z,2.77
2019-03-12T09:22:15.869Z,2.20
2019-03-12T09:24:58.798Z,2.30
2019-03-12T09:27:53.533Z,1.90
2019-03-12T09:30:39.688Z,2.22
2019-03-12T09:33:17.836Z,2.10
2019-03-12T09:36:05.755Z,2.20
2019-03-12T09:38:46.783Z,2.15
2019-03-12T09:41:23.115Z,2.23
2019-03-12T09:44:02.645Z,2.40
2019-03-12T09:46:40.935Z,1.95
2019-03-12T09:49:30.191Z,2.12
2019-03-12T09:52:15.853Z,1.98
2019-03-12T09:54:56.664Z,1.72
2019-03-12T09:57:48.617Z,1.82
2019-03-12T10:00:31.298Z,2.10
2019-03-12T10:03:19.844Z,1.70
2019-03-12T10:05:57.347Z,1.85
2019-03-12T10:08:49.174Z,1.70
2019-03-12T10:11:33.472Z,1.80
2019-03-12T10:14:21.055Z,1.95
2019-03-12T10:17:10.124Z,1.67
2019-03-12T10:19:48.859Z,1.70
2019-03-12T10:22:57.062Z,2.55
2019-03-12T10:25:46.171Z,1.70
2019-03-12T10:28:33.348Z,2.02
2019-03-12T10:31:22.433Z,1.92
2019-03-12T10:34:00.518Z,2.00
2019-03-12T10:36:42.679Z,2.37
2019-03-12T10:40:01.559Z,1.82
2019-03-12T10:42:49.838Z,1.80
2019-03-12T10:45:30.492Z,1.92
2019-03-12T10:48:00.887Z,1.47
2019-03-12T10:50:31.798Z,1.37
2019-03-12T10:53:02.028Z,2.08
2019-03-12T10:55:32.199Z,1.85
2019-03-12T10:58:02.367Z,1.80
2019-03-12T11:00:33.512Z,1.35
2019-03-12T11:03:04.325Z,1.70
2019-03-12T11:05:45.293Z,1.57
2019-03-12T11:10:37.069Z,2.10
2019-03-12T11:13:07.166Z,1.72
2019-03-12T11:15:37.294Z,1.70
2019-03-12T11:18:08.306Z,1.42
2019-03-12T11:20:38.695Z,1.45
2019-03-12T11:23:09.191Z,1.45
2019-03-12T11:25:39.321Z,1.50
2019-03-12T11:28:09.442Z,1.80
2019-03-12T11:30:39.547Z,1.40
2019-03-12T11:33:10.848Z,1.52
2019-03-12T11:35:41.399Z,1.07
2019-03-12T11:38:11.557Z,1.20
2019-03-12T11:40:42.021Z,1.12
2019-03-12T11:43:12.102Z,1.35
2019-03-12T11:45:43.175Z,0.82
2019-03-12T11:48:13.750Z,1.35
2019-03-12T11:50:43.955Z,1.40
2019-03-12T11:53:14.183Z,1.42
2019-03-12T11:55:44.660Z,1.32
2019-03-12T11:58:14.799Z,1.30
2019-03-12T12:00:49.663Z,1.40
2019-03-12T12:03:20.594Z,1.30
2019-03-12T12:05:51.929Z,1.00
2019-03-12T12:08:22.805Z,1.00
2019-03-12T12:10:53.317Z,1.43
2019-03-12T12:13:23.659Z,1.32
2019-03-12T12:15:54.035Z,1.20
2019-03-12T12:18:25.828Z,1.45
2019-03-12T12:23:25.432Z,1.15
2019-03-12T12:25:55.606Z,1.10
2019-03-12T12:28:25.684Z,1.10
2019-03-12T12:30:56.377Z,1.00
2019-03-12T12:33:27.159Z,1.60
2019-03-12T12:35:58.831Z,3.10
2019-03-12T12:38:28.876Z,1.90
2019-03-12T12:40:59.280Z,1.60
2019-03-12T12:43:29.284Z,1.65
2019-03-12T12:46:00.255Z,1.60
2019-03-12T12:48:30.415Z,1.57
2019-03-12T12:51:03.521Z,1.60
2019-03-12T12:53:33.449Z,1.42
2019-03-12T12:56:03.843Z,1.13
2019-03-12T12:58:33.887Z,1.00
2019-03-12T13:01:04.774Z,1.20
2019-03-12T13:03:34.829Z,1.10
2019-03-12T13:06:05.446Z,1.00
2019-03-12T13:08:36.493Z,1.10
2019-03-12T13:11:06.904Z,0.90
2019-03-12T13:13:37.934Z,1.05
2019-03-12T13:16:08.082Z,0.82
2019-03-12T13:18:38.228Z,1.22
2019-03-12T13:21:09.018Z,0.93
2019-03-12T13:23:39.239Z,1.07
2019-03-12T13:26:10.242Z,1.07
2019-03-12T13:28:40.655Z,0.80
2019-03-12T13:31:10.753Z,1.10
2019-03-12T13:33:41.589Z,0.95
2019-03-12T13:36:17.762Z,0.98
2019-03-12T13:38:48.588Z,1.10
2019-03-12T13:41:19.461Z,1.00
2019-03-12T13:43:49.859Z,0.95
2019-03-12T13:46:20.339Z,0.95
2019-03-12T13:48:51.800Z,0.70
2019-03-12T13:51:22.343Z,0.80
2019-03-12T13:53:54.006Z,0.70
2019-03-12T13:56:24.432Z,0.70
2019-03-12T13:58:54.990Z,1.00
2019-03-12T14:01:25.401Z,0.85
2019-03-12T14:03:55.779Z,0.75
2019-03-12T14:06:25.817Z,0.75
2019-03-12T14:08:55.926Z,0.72
2019-03-12T14:11:26.855Z,0.55
2019-03-12T14:13:57.564Z,1.00
2019-03-12T14:16:27.975Z,0.78
2019-03-12T14:18:57.997Z,0.80
2019-03-12T14:21:28.374Z,0.70
2019-03-12T14:24:00.913Z,0.65
2019-03-12T14:26:31.680Z,0.50
2019-03-12T14:29:02.145Z,0.60
2019-03-12T14:31:32.700Z,0.50
2019-03-12T14:34:03.061Z,0.90
2019-03-12T14:36:33.184Z,0.70
2019-03-12T14:39:05.451Z,0.75
2019-03-12T14:41:37.605Z,0.60
2019-03-12T14:44:07.756Z,0.70
2019-03-12T14:46:38.027Z,0.70
2019-03-12T14:49:08.769Z,0.60
2019-03-12T14:52:04.900Z,0.85
2019-03-12T14:54:36.058Z,0.60
2019-03-12T14:57:06.552Z,2.00
2019-03-12T14:59:37.471Z,1.80
2019-03-12T15:02:07.540Z,1.50
2019-03-12T15:04:37.723Z,1.22
2019-03-12T15:07:08.071Z,0.90
2019-03-12T15:09:38.579Z,1.27
2019-03-12T15:12:11.543Z,0.93
2019-03-12T15:17:09.531Z,0.90
2019-03-12T15:19:40.567Z,1.10
2019-03-12T15:22:11.043Z,0.80
2019-03-12T15:24:41.359Z,0.90
2019-03-12T15:27:11.517Z,1.10
2019-03-12T15:29:41.888Z,0.90
2019-03-12T15:32:12.609Z,0.80
2019-03-12T15:34:43.438Z,0.70
2019-03-12T15:37:13.839Z,0.62
2019-03-12T15:39:43.918Z,0.60
2019-03-12T15:42:14.183Z,0.68
2019-03-12T15:47:38.844Z,0.85
2019-03-12T15:50:10.201Z,0.60
2019-03-12T15:52:40.388Z,0.50
2019-03-12T15:55:10.487Z,0.75
2019-03-12T15:57:40.587Z,0.60
2019-03-12T16:00:11.102Z,1.55
2019-03-12T16:02:41.577Z,1.20
2019-03-12T16:05:11.637Z,1.12
2019-03-12T16:07:41.781Z,3.42
2019-03-12T16:10:13.056Z,2.10
2019-03-12T16:12:43.137Z,1.75
2019-03-12T16:15:13.652Z,1.22
2019-03-12T16:17:43.815Z,1.35
2019-03-12T16:20:13.868Z,1.10
2019-03-12T16:22:44.040Z,1.72
2019-03-12T16:25:14.208Z,1.50
2019-03-12T16:27:44.727Z,1.42
2019-03-12T16:30:15.106Z,1.25
2019-03-12T16:32:45.209Z,1.32
2019-03-12T16:35:15.335Z,1.20
2019-03-12T16:37:45.826Z,1.20
2019-03-12T16:40:16.003Z,1.10
2019-03-12T16:42:46.415Z,0.95
2019-03-12T16:45:16.894Z,1.30
2019-03-12T16:47:46.941Z,0.90
2019-03-12T16:50:17.341Z,1.25
2019-03-12T16:52:47.412Z,1.37
2019-03-12T16:55:19.523Z,0.95
2019-03-12T16:57:49.856Z,0.90
2019-03-12T17:00:20.198Z,1.07
2019-03-12T17:02:50.637Z,1.22
2019-03-12T17:05:20.764Z,1.30
2019-03-12T17:07:50.958Z,1.00
2019-03-12T17:10:21.654Z,1.42
2019-03-12T17:12:52.023Z,1.12
2019-03-12T17:15:22.183Z,1.40
2019-03-12T17:17:52.404Z,1.25
2019-03-12T17:20:22.421Z,1.10
2019-03-12T17:22:52.930Z,1.20
2019-03-12T17:25:23.155Z,1.35
2019-03-12T17:27:55.006Z,1.52
2019-03-12T17:30:25.100Z,1.10
2019-03-12T17:32:55.532Z,1.40
2019-03-12T17:35:26.496Z,1.20
2019-03-12T17:37:57.135Z,1.35
2019-03-12T17:40:27.515Z,1.35
2019-03-12T17:42:58.072Z,1.52
2019-03-12T17:45:28.363Z,1.42
2019-03-12T17:47:58.523Z,1.45
2019-03-12T17:50:28.729Z,1.70
2019-03-12T17:53:00.194Z,1.95
2019-03-12T17:55:30.317Z,1.40
2019-03-12T17:58:00.695Z,1.52
2019-03-12T18:00:31.373Z,1.47
2019-03-12T18:03:02.582Z,1.47
2019-03-12T18:05:33.300Z,1.52
2019-03-12T18:08:04.044Z,1.50
2019-03-12T18:10:34.380Z,1.55
2019-03-12T18:13:05.315Z,1.80
2019-03-12T18:15:36.179Z,2.07
2019-03-12T18:18:06.632Z,1.77
2019-03-12T18:20:37.279Z,1.98
2019-03-12T18:23:07.394Z,2.20
2019-03-12T18:25:38.068Z,1.70
2019-03-12T18:28:09.707Z,2.10
2019-03-12T18:30:39.807Z,2.15
2019-03-12T18:33:09.907Z,2.17
2019-03-12T18:35:40.414Z,2.20
2019-03-12T18:38:10.824Z,2.00
2019-03-12T18:40:41.721Z,2.10
2019-03-12T18:43:14.646Z,2.37
2019-03-12T18:45:44.195Z,2.47
2019-03-12T18:48:14.310Z,2.35
2019-03-12T18:50:45.569Z,2.33
2019-03-12T18:53:15.960Z,2.42
2019-03-12T18:56:08.903Z,2.42
2019-03-12T18:58:39.429Z,1.98
2019-03-12T19:01:10.879Z,2.55
2019-03-12T19:03:41.473Z,2.25
2019-03-12T19:06:11.610Z,1.85
2019-03-12T19:08:48.068Z,2.65
2019-03-12T19:11:15.657Z,2.15
2019-03-12T19:13:45.841Z,2.25
2019-03-12T19:16:17.411Z,2.20
2019-03-12T19:18:47.670Z,2.45
2019-03-12T19:21:17.886Z,2.72
2019-03-12T19:23:48.082Z,2.67
2019-03-12T19:26:18.633Z,3.02
2019-03-12T19:28:48.683Z,2.60
2019-03-12T19:31:44.425Z,2.20
2019-03-12T19:34:20.267Z,2.58
2019-03-12T19:36:50.911Z,2.70
2019-03-12T19:39:21.176Z,2.00
2019-03-12T19:41:52.432Z,1.60
2019-03-12T19:44:22.548Z,2.10
2019-03-12T19:46:53.699Z,2.08
2019-03-12T19:49:26.308Z,1.98
2019-03-12T19:51:57.940Z,1.90
2019-03-12T19:54:28.055Z,1.98
2019-03-12T19:56:58.629Z,2.40
2019-03-12T19:59:29.927Z,1.90
2019-03-12T20:02:01.146Z,2.20
2019-03-12T20:04:31.559Z,2.10
2019-03-12T20:07:03.014Z,1.98
2019-03-12T20:09:51.006Z,1.80
2019-03-12T20:12:57.711Z,1.70
2019-03-12T20:16:21.463Z,2.17
2019-03-12T20:19:28.384Z,2.22
2019-03-12T20:22:46.066Z,1.85
2019-03-12T20:25:51.811Z,1.92
2019-03-12T20:29:04.423Z,1.62
2019-03-12T20:32:09.681Z,1.70
2019-03-12T20:35:15.645Z,1.62
2019-03-12T20:38:24.186Z,1.75
2019-03-12T20:41:30.057Z,1.77
2019-03-12T20:44:50.425Z,1.90
2019-03-12T20:48:11.465Z,1.95
2019-03-12T20:51:17.419Z,2.15
2019-03-12T20:54:29.985Z,1.90
2019-03-12T20:57:35.865Z,2.08
2019-03-12T21:00:48.052Z,1.87
2019-03-12T21:03:45.549Z,1.95
2019-03-12T21:06:55.231Z,2.42
2019-03-12T21:10:21.217Z,2.45
2019-03-12T21:13:50.642Z,2.27
2019-03-12T21:17:00.029Z,2.33
2019-03-12T21:20:23.053Z,1.90
2019-03-12T21:23:17.133Z,2.05
2019-03-12T21:26:22.482Z,2.45
2019-03-12T21:29:43.778Z,1.80
2019-03-12T21:32:15.356Z,1.60
2019-03-12T21:34:45.984Z,1.80
2019-03-12T21:37:16.936Z,1.55
2019-03-12T21:39:55.293Z,1.47
2019-03-12T21:42:19.672Z,1.72
2019-03-12T21:44:51.433Z,1.65
2019-03-12T21:47:21.501Z,1.42
2019-03-12T21:49:52.031Z,1.92
2019-03-12T21:52:22.131Z,1.75
2019-03-12T21:54:52.268Z,1.12
2019-03-12T21:57:22.293Z,1.30
2019-03-12T21:59:52.432Z,1.65
2019-03-12T22:02:22.874Z,1.40
2019-03-12T22:04:53.092Z,1.80
2019-03-12T22:07:23.174Z,1.40
2019-03-12T22:09:53.410Z,1.50
2019-03-12T22:12:23.795Z,1.95
2019-03-12T22:14:54.768Z,1.90
2019-03-12T22:17:24.871Z,1.30
2019-03-12T22:19:55.615Z,1.40
2019-03-12T22:22:51.107Z,2.10
2019-03-12T22:25:21.481Z,1.47
2019-03-12T22:27:51.576Z,1.40
2019-03-12T22:30:23.206Z,1.62
2019-03-12T22:32:53.451Z,1.10
2019-03-12T22:35:24.189Z,1.20
2019-03-12T22:37:54.317Z,1.60
2019-03-12T22:40:25.118Z,1.35
2019-03-12T22:42:56.131Z,1.50
2019-03-12T22:45:26.937Z,1.60
2019-03-12T22:47:57.455Z,1.40
2019-03-12T22:50:27.557Z,1.50
2019-03-12T22:52:58.528Z,1.62
2019-03-12T22:55:28.726Z,1.87
2019-03-12T22:57:59.221Z,1.50
2019-03-12T23:00:47.099Z,1.20
2019-03-12T23:03:35.325Z,1.80
2019-03-12T23:06:23.381Z,1.42
2019-03-12T23:09:11.168Z,1.10
2019-03-12T23:11:43.265Z,1.30
2019-03-12T23:14:15.078Z,1.35
2019-03-12T23:16:45.965Z,1.35
2019-03-12T23:19:16.187Z,1.40
2019-03-12T23:21:46.627Z,1.40
2019-03-12T23:24:17.749Z,1.40
2019-03-12T23:26:49.186Z,1.12
2019-03-12T23:29:19.641Z,1.22
2019-03-12T23:31:51.054Z,1.12
2019-03-12T23:34:22.372Z,1.30
2019-03-12T23:36:52.685Z,1.20
2019-03-12T23:39:23.092Z,1.25
2019-03-12T23:41:53.340Z,1.20
2019-03-12T23:44:23.448Z,1.40
2019-03-12T23:46:53.597Z,1.50
2019-03-12T23:49:24.123Z,1.60
2019-03-12T23:51:54.302Z,1.47
2019-03-12T23:54:24.694Z,1.50
2019-03-12T23:56:54.890Z,1.60
2019-03-12T23:59:24.959Z,1.70
